Trinidad, California
Current Conditions -  °F | °C
As of 11:53 PM on Sunday 25 Jan 2015 (Local Time) from KACV Reporting Station
Clear Clear  
Wind Chill: 45°   Ceiling: Unl
Heat Index: 47°   Visibility: 10mi
Dew Point: 44°   Wind: 5mph
Humidity: 90%   Direction: 100°E
Pressure: 30.01"   Gusts: NA
Location:  41.06°N, 124.14°W
Report Text: KACV 260753Z AUTO 10004KT 10SM CLR 08/07 A3001 RMK AO2 SLP167 T00830067 402000072
Loading
Personal Weather Stations






























Interactive Weather Map New forecast layout! Learn more

10-Day Weather Forecast

Advertisements
Track Severe Weather on mobile